Time;durP1;ratioP1;P1;durP2;ratioP2;P2;SDS_P1;SDS_P2;PMS_P1;PMS_P2;Temp;Humidity;BMP_temperature;BMP_pressure;BME280_temperature;BME280_humidity;BME280_pressure;Samples;Min_cycle;Max_cycle;Signal;HPM_P1;HPM_P2
2021/12/04 00:00:51;;;;;;;0.73;0.73;;;;;;;2.67;99.68;99204.34;5071128;28;20174;-82
2021/12/04 00:03:16;;;;;;;0.80;0.80;;;;;;;2.65;99.69;99199.25;5072245;28;20170;-80
2021/12/04 00:05:53;;;;;;;1.23;1.13;;;;;;;2.68;99.82;99200.56;5072192;28;20162;-83
2021/12/04 00:08:19;;;;;;;0.70;0.70;;;;;;;2.69;99.37;99194.09;5071112;28;20540;-83
2021/12/04 00:10:44;;;;;;;1.37;1.10;;;;;;;2.68;99.07;99201.38;5072258;28;20174;-80
2021/12/04 00:13:09;;;;;;;0.53;0.30;;;;;;;2.72;98.95;99193.50;5072137;28;20420;-83
2021/12/04 00:15:35;;;;;;;1.13;1.13;;;;;;;2.70;99.48;99193.00;5071945;28;20594;-83
2021/12/04 00:18:00;;;;;;;0.50;0.50;;;;;;;2.72;99.56;99177.31;5070757;28;20206;-82
2021/12/04 00:20:30;;;;;;;1.23;1.13;;;;;;;2.73;99.16;99184.31;5071904;28;20170;-82
2021/12/04 00:22:59;;;;;;;0.50;0.50;;;;;;;2.75;99.01;99187.53;5072049;28;20175;-83
2021/12/04 00:25:26;;;;;;;0.47;0.47;;;;;;;2.76;98.76;99182.94;5071418;28;20423;-82
2021/12/04 00:27:52;;;;;;;1.07;0.97;;;;;;;2.75;98.36;99176.75;5071975;28;20470;-82
2021/12/04 00:30:17;;;;;;;0.13;0.13;;;;;;;2.75;98.49;99171.38;5071743;28;20170;-84
2021/12/04 00:32:52;;;;;;;0.77;0.73;;;;;;;2.76;98.76;99172.16;5071629;28;20175;-82
2021/12/04 00:35:31;;;;;;;0.67;0.67;;;;;;;2.76;98.86;99175.66;5071657;28;20177;-80
2021/12/04 00:51:27;;;;;;;0.10;0.10;;;;;;;2.78;98.79;99168.09;5071464;28;20231;-82
2021/12/04 00:53:54;;;;;;;0.60;0.60;;;;;;;2.77;98.82;99162.97;5070030;28;20166;-82
2021/12/04 00:56:23;;;;;;;0.97;0.93;;;;;;;2.75;98.83;99165.97;5071194;28;20257;-83
2021/12/04 00:58:49;;;;;;;2.77;1.97;;;;;;;2.77;99.62;99162.97;5071013;28;20202;-82
2021/12/04 01:01:16;;;;;;;2.10;1.90;;;;;;;2.79;99.87;99166.97;5071491;28;20239;-83
2021/12/04 01:03:41;;;;;;;1.70;1.47;;;;;;;2.80;99.51;99157.81;5071190;28;20648;-82
2021/12/04 01:06:07;;;;;;;0.50;0.50;;;;;;;2.77;99.44;99161.09;5070963;28;20171;-83
2021/12/04 01:08:32;;;;;;;2.27;2.07;;;;;;;2.74;99.15;99150.06;5071128;28;20217;-82
2021/12/04 01:10:57;;;;;;;2.10;1.90;;;;;;;2.69;99.81;99146.34;5071041;28;20174;-81
2021/12/04 01:13:23;;;;;;;1.37;1.27;;;;;;;2.73;99.68;99156.53;5069552;28;20170;-83
2021/12/04 01:15:48;;;;;;;2.00;1.90;;;;;;;2.69;100.00;99149.03;5070763;28;20649;-83
2021/12/04 01:18:13;;;;;;;2.20;1.83;;;;;;;2.75;100.00;99157.06;5070986;28;20394;-82
2021/12/04 01:20:39;;;;;;;3.50;1.90;;;;;;;2.71;100.00;99146.06;5070989;28;20244;-82
2021/12/04 01:23:05;;;;;;;1.67;1.57;;;;;;;2.72;100.00;99144.97;5070958;28;20280;-81
2021/12/04 01:25:30;;;;;;;0.63;0.63;;;;;;;2.70;100.00;99141.75;5070418;28;20236;-79
2021/12/04 01:27:55;;;;;;;0.80;0.80;;;;;;;2.66;100.00;99136.16;5070979;28;20206;-82
2021/12/04 01:30:21;;;;;;;0.73;0.73;;;;;;;2.63;100.00;99141.34;5070714;28;20167;-82
2021/12/04 01:32:47;;;;;;;0.37;0.37;;;;;;;2.62;100.00;99129.75;5070966;28;20257;-81
2021/12/04 01:35:12;;;;;;;2.07;1.93;;;;;;;2.60;100.00;99131.94;5070702;28;20196;-83
2021/12/04 01:37:37;;;;;;;0.10;0.10;;;;;;;2.59;100.00;99127.59;5070644;28;20275;-83
2021/12/04 01:40:05;;;;;;;1.00;0.80;;;;;;;2.59;100.00;99121.41;5070616;28;20225;-79
2021/12/04 01:42:34;;;;;;;1.27;1.20;;;;;;;2.57;100.00;99115.53;5069464;28;20170;-82
2021/12/04 01:45:00;;;;;;;1.60;1.50;;;;;;;2.54;100.00;99114.22;5070607;28;20456;-83
2021/12/04 01:47:25;;;;;;;1.00;0.97;;;;;;;2.56;100.00;99113.91;5069319;28;20934;-80
2021/12/04 01:49:52;;;;;;;1.87;1.77;;;;;;;2.51;100.00;99122.88;5070954;28;20213;-82
2021/12/04 01:52:18;;;;;;;0.40;0.30;;;;;;;2.49;100.00;99113.50;5070558;28;20257;-82
2021/12/04 01:54:45;;;;;;;2.13;1.87;;;;;;;2.47;100.00;99115.69;5070439;28;20181;-84
2021/12/04 01:57:15;;;;;;;1.23;1.23;;;;;;;2.44;100.00;99110.84;5070683;28;20420;-82
2021/12/04 01:59:41;;;;;;;1.00;0.97;;;;;;;2.38;100.00;99108.22;5072003;28;20210;-81
2021/12/04 02:02:07;;;;;;;1.00;1.00;;;;;;;2.37;100.00;99103.94;5073488;28;20768;-81
2021/12/04 02:04:33;;;;;;;1.37;1.27;;;;;;;2.38;100.00;99096.66;5073320;28;20204;-80
2021/12/04 02:07:02;;;;;;;1.00;1.00;;;;;;;2.40;100.00;99089.06;5074412;28;20216;-80
2021/12/04 02:09:28;;;;;;;1.43;1.33;;;;;;;2.40;100.00;99094.47;5073078;28;20190;-82
2021/12/04 02:11:53;;;;;;;1.33;0.87;;;;;;;2.38;100.00;99102.03;5074480;28;20216;-82
2021/12/04 02:14:19;;;;;;;1.77;1.63;;;;;;;2.35;100.00;99086.47;5074466;28;20653;-79
2021/12/04 02:16:45;;;;;;;0.27;0.27;;;;;;;2.33;100.00;99092.16;5074346;28;20250;-82
2021/12/04 02:19:10;;;;;;;1.40;1.30;;;;;;;2.33;100.00;99096.72;5074254;28;20229;-81
2021/12/04 02:21:36;;;;;;;2.47;2.27;;;;;;;2.28;100.00;99089.50;5074235;28;20175;-83
2021/12/04 02:24:01;;;;;;;2.93;2.57;;;;;;;2.36;100.00;99088.84;5074069;28;20692;-82
2021/12/04 02:26:27;;;;;;;2.70;2.50;;;;;;;2.41;100.00;99096.06;5073897;28;20225;-83
2021/12/04 02:28:54;;;;;;;1.97;1.50;;;;;;;2.43;100.00;99087.69;5074163;28;20171;-83
2021/12/04 02:31:20;;;;;;;1.53;1.43;;;;;;;2.42;100.00;99086.88;5074302;28;20641;-82
2021/12/04 02:33:45;;;;;;;0.63;0.63;;;;;;;2.43;100.00;99093.06;5072647;28;20409;-83
2021/12/04 02:36:11;;;;;;;0.63;0.63;;;;;;;2.41;100.00;99079.09;5073902;28;20163;-83
2021/12/04 02:38:36;;;;;;;2.20;2.00;;;;;;;2.33;100.00;99070.59;5072521;28;20229;-83
2021/12/04 02:41:01;;;;;;;2.70;2.27;;;;;;;2.32;100.00;99068.97;5073873;28;20626;-82
2021/12/04 02:43:32;;;;;;;1.00;1.00;;;;;;;2.30;100.00;99063.06;5073819;28;20175;-82
2021/12/04 02:45:58;;;;;;;0.57;0.57;;;;;;;2.31;100.00;99059.25;5073610;28;20167;-83
2021/12/04 02:48:23;;;;;;;2.27;2.07;;;;;;;2.32;100.00;99058.19;5073781;28;20604;-82
2021/12/04 02:50:48;;;;;;;1.57;1.47;;;;;;;2.32;100.00;99062.78;5073656;28;20224;-83
2021/12/04 02:53:15;;;;;;;0.30;0.30;;;;;;;2.33;100.00;99067.09;5072150;28;20183;-82
2021/12/04 02:55:41;;;;;;;0.73;0.73;;;;;;;2.33;100.00;99070.59;5073689;28;20214;-82
2021/12/04 02:58:07;;;;;;;0.60;0.60;;;;;;;2.33;100.00;99075.16;5073382;28;20971;-82
2021/12/04 03:00:33;;;;;;;1.00;1.00;;;;;;;2.35;100.00;99071.09;5072102;28;20424;-82
2021/12/04 03:02:59;;;;;;;1.03;0.97;;;;;;;2.37;100.00;99071.59;5073844;28;20162;-82
2021/12/04 03:05:27;;;;;;;1.33;1.23;;;;;;;2.39;100.00;99060.53;5073256;28;20423;-82
2021/12/04 03:07:54;;;;;;;1.57;1.37;;;;;;;2.39;100.00;99055.94;5073398;28;20208;-82
2021/12/04 03:10:21;;;;;;;0.70;0.70;;;;;;;2.39;100.00;99047.03;5073049;28;20431;-82
2021/12/04 03:12:47;;;;;;;0.50;0.50;;;;;;;2.42;100.00;99037.56;5071977;28;20166;-83
2021/12/04 03:15:13;;;;;;;2.00;1.90;;;;;;;2.39;100.00;99039.75;5072936;28;20530;-81
2021/12/04 03:17:38;;;;;;;6.23;2.33;;;;;;;2.43;100.00;99034.56;5072954;28;20170;-81
2021/12/04 03:20:05;;;;;;;2.00;1.90;;;;;;;2.46;100.00;99035.88;5073103;28;20175;-83
2021/12/04 03:22:31;;;;;;;0.50;0.50;;;;;;;2.48;100.00;99026.44;5071713;28;20544;-81
2021/12/04 03:24:58;;;;;;;1.37;1.37;;;;;;;2.47;100.00;99022.13;5072658;28;20166;-80
2021/12/04 03:27:25;;;;;;;0.77;0.77;;;;;;;2.47;100.00;99015.94;5073310;28;20205;-82
2021/12/04 03:29:57;;;;;;;0.70;0.70;;;;;;;2.47;100.00;99007.88;5073483;28;20447;-82
2021/12/04 03:35:22;;;;;;;1.50;1.40;;;;;;;2.46;100.00;99006.25;5072750;28;20748;-81
2021/12/04 03:43:02;;;;;;;1.23;1.00;;;;;;;2.48;100.00;99007.56;5072885;28;20174;-81
2021/12/04 03:45:28;;;;;;;3.27;1.93;;;;;;;2.49;100.00;99003.78;5071372;28;20179;-79
2021/12/04 03:48:02;;;;;;;1.80;1.70;;;;;;;2.49;100.00;99006.47;5072753;28;20967;-83
2021/12/04 03:50:28;;;;;;;0.60;0.60;;;;;;;2.49;100.00;98997.59;5072507;28;20170;-83
2021/12/04 03:52:53;;;;;;;1.80;1.70;;;;;;;2.46;100.00;98990.91;5072473;28;20912;-83
2021/12/04 03:55:18;;;;;;;3.23;1.53;;;;;;;2.48;100.00;98985.22;5072263;28;20175;-83
2021/12/04 03:57:44;;;;;;;2.27;2.13;;;;;;;2.44;100.00;98989.56;5072397;28;20202;-82
2021/12/04 04:00:14;;;;;;;1.90;1.80;;;;;;;2.52;100.00;98991.59;5072338;28;20174;-83
2021/12/04 04:02:40;;;;;;;1.73;1.43;;;;;;;2.56;100.00;98992.59;5072627;28;20630;-82
2021/12/04 04:05:06;;;;;;;0.30;0.30;;;;;;;2.58;100.00;98985.03;5078550;28;20276;-82
2021/12/04 04:07:31;;;;;;;0.63;0.60;;;;;;;2.54;100.00;98987.50;5080384;28;20177;-82
2021/12/04 04:09:58;;;;;;;2.07;1.53;;;;;;;2.53;100.00;98980.53;5072813;28;20560;-82
2021/12/04 04:12:23;;;;;;;0.60;0.60;;;;;;;2.51;100.00;98985.41;5073141;28;20826;-84
2021/12/04 04:14:49;;;;;;;1.93;1.77;;;;;;;2.50;100.00;98975.72;5071142;28;20425;-83
2021/12/04 04:17:14;;;;;;;1.63;1.53;;;;;;;2.49;100.00;98968.75;5072187;28;20202;-83
2021/12/04 04:19:39;;;;;;;1.27;1.20;;;;;;;2.52;100.00;98972.72;5072051;28;20202;-82
2021/12/04 04:22:05;;;;;;;1.77;1.67;;;;;;;2.53;100.00;98969.75;5071391;28;20254;-83
2021/12/04 04:24:32;;;;;;;2.30;2.10;;;;;;;2.48;100.00;98959.06;5071824;28;20533;-82
2021/12/04 04:26:58;;;;;;;1.87;1.77;;;;;;;2.55;100.00;98947.88;5071936;28;20484;-83
2021/12/04 04:29:25;;;;;;;1.03;0.93;;;;;;;2.56;100.00;98952.19;5071939;28;20261;-83
2021/12/04 04:31:53;;;;;;;0.00;0.00;;;;;;;2.53;100.00;98948.19;5071757;28;20170;-82
2021/12/04 04:34:39;;;;;;;1.57;1.47;;;;;;;2.49;100.00;98949.06;5071834;28;20627;-82
2021/12/04 04:58:56;;;;;;;1.03;0.87;;;;;;;2.46;100.00;98947.78;5071396;28;20284;-85
2021/12/04 05:12:21;;;;;;;4.47;3.00;;;;;;;2.41;100.00;98938.94;5071150;28;20684;-83
2021/12/04 05:14:52;;;;;;;2.17;2.03;;;;;;;2.43;100.00;98934.06;5069810;28;20195;-82
2021/12/04 05:17:30;;;;;;;2.63;2.43;;;;;;;2.38;100.00;98938.44;5071079;28;20623;-85
2021/12/04 05:19:56;;;;;;;2.50;2.30;;;;;;;2.31;100.00;98932.63;5071048;28;20219;-84
2021/12/04 05:22:22;;;;;;;1.80;1.70;;;;;;;2.40;100.00;98938.16;5070968;28;20546;-83
2021/12/04 05:24:48;;;;;;;2.43;2.27;;;;;;;2.42;100.00;98935.16;5070628;28;20171;-83
2021/12/04 05:27:14;;;;;;;1.80;1.70;;;;;;;2.38;100.00;98934.97;5070908;28;20217;-83
2021/12/04 05:29:41;;;;;;;1.57;1.47;;;;;;;2.35;100.00;98938.25;5071226;28;20182;-83
2021/12/04 05:32:09;;;;;;;2.03;1.87;;;;;;;2.32;100.00;98926.16;5070863;28;20171;-83
2021/12/04 05:34:35;;;;;;;1.97;1.83;;;;;;;2.29;100.00;98924.03;5069408;28;20672;-83
2021/12/04 05:37:01;;;;;;;7.17;1.37;;;;;;;2.30;100.00;98925.63;5070717;28;20171;-82
2021/12/04 05:39:27;;;;;;;0.70;0.70;;;;;;;2.29;100.00;98921.34;5070646;28;20469;-83
2021/12/04 05:41:53;;;;;;;2.20;2.00;;;;;;;2.28;100.00;98910.84;5069410;28;20178;-84
2021/12/04 05:44:23;;;;;;;0.63;0.63;;;;;;;2.28;100.00;98919.75;5070542;28;20586;-82
2021/12/04 05:49:58;;;;;;;1.33;1.23;;;;;;;2.27;100.00;98920.84;5036220;28;20448;-82
2021/12/04 05:55:18;;;;;;;1.70;1.60;;;;;;;2.25;100.00;98923.03;5070561;28;20774;-85
2021/12/04 05:57:44;;;;;;;2.57;2.30;;;;;;;2.30;100.00;98935.63;5070593;28;20418;-84
2021/12/04 06:00:23;;;;;;;3.07;2.77;;;;;;;2.25;100.00;98930.31;5070557;28;20534;-84
2021/12/04 06:02:49;;;;;;;2.80;2.60;;;;;;;2.35;100.00;98938.25;5069185;28;20167;-82
2021/12/04 06:05:15;;;;;;;2.50;2.30;;;;;;;2.36;100.00;98937.94;5069025;28;20691;-83
2021/12/04 06:07:41;;;;;;;4.33;2.53;;;;;;;2.44;100.00;98939.16;5070580;28;20166;-82
2021/12/04 06:10:07;;;;;;;5.57;2.13;;;;;;;2.43;100.00;98936.75;5070306;28;20270;-84
2021/12/04 06:12:33;;;;;;;2.10;2.00;;;;;;;2.46;100.00;98944.25;5070515;28;20181;-82
2021/12/04 06:14:59;;;;;;;2.70;2.50;;;;;;;2.42;100.00;98938.66;5070319;28;20690;-83
2021/12/04 06:17:28;;;;;;;8.37;2.00;;;;;;;2.40;100.00;98940.84;5070400;28;20209;-84
2021/12/04 06:22:38;;;;;;;2.70;2.43;;;;;;;2.35;100.00;98938.25;5070329;28;20454;-83
2021/12/04 06:25:13;;;;;;;3.37;2.60;;;;;;;2.33;100.00;98946.63;5069981;28;20175;-81
2021/12/04 06:27:39;;;;;;;3.37;2.00;;;;;;;2.38;100.00;98943.84;5070201;28;20202;-82
2021/12/04 06:30:08;;;;;;;2.23;2.03;;;;;;;2.41;100.00;98955.91;5068942;28;20631;-81
2021/12/04 06:32:36;;;;;;;3.07;2.77;;;;;;;2.39;100.00;98945.44;5070471;28;20182;-84
2021/12/04 06:35:06;;;;;;;3.13;2.83;;;;;;;2.39;100.00;98958.13;5070018;28;20174;-78
2021/12/04 06:37:31;;;;;;;1.60;1.27;;;;;;;2.40;100.00;98954.31;5070067;28;20178;-78
2021/12/04 06:39:57;;;;;;;1.97;1.87;;;;;;;2.34;100.00;98947.44;5070115;28;20175;-78
2021/12/04 06:42:23;;;;;;;2.53;2.33;;;;;;;2.27;100.00;98938.91;5070090;28;20590;-78
2021/12/04 06:44:50;;;;;;;2.33;2.13;;;;;;;2.28;100.00;98952.06;5070087;28;20170;-78
2021/12/04 06:47:16;;;;;;;2.90;2.70;;;;;;;2.31;100.00;98951.47;5072287;28;20606;-77
2021/12/04 06:49:43;;;;;;;3.57;2.80;;;;;;;2.31;100.00;98948.78;5073654;28;20274;-77
2021/12/04 06:52:14;;;;;;;3.03;2.70;;;;;;;2.32;100.00;98947.72;5073761;28;20181;-79
2021/12/04 06:54:44;;;;;;;2.60;2.40;;;;;;;2.33;100.00;98949.31;5073683;28;20405;-77
2021/12/04 06:57:11;;;;;;;1.70;1.60;;;;;;;2.32;100.00;98952.31;5073706;28;20171;-77
2021/12/04 06:59:39;;;;;;;1.77;1.67;;;;;;;2.36;100.00;98954.13;5073526;28;20299;-78
2021/12/04 07:02:05;;;;;;;2.30;2.17;;;;;;;2.33;100.00;98948.53;5073504;28;20177;-78
2021/12/04 07:04:34;;;;;;;3.20;2.93;;;;;;;2.33;100.00;98952.00;5073540;28;20657;-78
2021/12/04 07:07:01;;;;;;;3.33;3.13;;;;;;;2.35;100.00;98949.81;5073270;28;20163;-79
2021/12/04 07:09:26;;;;;;;0.70;0.70;;;;;;;2.35;100.00;98949.03;5073139;28;20235;-76
2021/12/04 07:11:52;;;;;;;2.73;2.47;;;;;;;2.34;100.00;98955.50;5073466;28;20416;-77
2021/12/04 07:14:17;;;;;;;5.20;3.10;;;;;;;2.35;100.00;98952.50;5073234;28;20167;-76
2021/12/04 07:16:43;;;;;;;1.90;1.80;;;;;;;2.34;100.00;98947.44;5073105;28;20183;-77
2021/12/04 07:19:09;;;;;;;3.07;2.77;;;;;;;2.32;100.00;98952.31;5073125;28;20202;-77
2021/12/04 07:21:34;;;;;;;1.40;1.40;;;;;;;2.30;100.00;98949.88;5071908;28;20269;-78
2021/12/04 07:23:59;;;;;;;3.00;1.90;;;;;;;2.30;100.00;98944.50;5072791;28;20630;-77
2021/12/04 07:26:25;;;;;;;2.53;2.33;;;;;;;2.31;100.00;98954.19;5072898;28;20220;-77
2021/12/04 07:28:50;;;;;;;2.93;2.70;;;;;;;2.30;100.00;98947.19;5073070;28;20185;-77
2021/12/04 07:31:15;;;;;;;2.57;2.10;;;;;;;2.31;100.00;98948.00;5073102;28;20166;-78
2021/12/04 07:33:41;;;;;;;1.27;1.13;;;;;;;2.32;100.00;98953.09;5072868;28;20170;-76
2021/12/04 07:36:06;;;;;;;1.63;1.53;;;;;;;2.32;100.00;98950.41;5072831;28;20622;-77
2021/12/04 07:38:32;;;;;;;5.63;5.23;;;;;;;2.36;100.00;98953.31;5072267;28;20789;-78
2021/12/04 07:41:00;;;;;;;4.20;3.80;;;;;;;2.39;100.00;98953.53;5072923;28;20166;-77
2021/12/04 07:43:27;;;;;;;1.90;1.80;;;;;;;2.41;100.00;98955.13;5072942;28;20184;-77
2021/12/04 07:45:52;;;;;;;4.73;4.27;;;;;;;2.39;100.00;98958.91;5072825;28;20549;-77
2021/12/04 07:48:17;;;;;;;3.13;2.80;;;;;;;2.49;100.00;98967.94;5072585;28;20196;-77
2021/12/04 07:50:43;;;;;;;2.97;2.67;;;;;;;2.51;100.00;98960.34;5072573;28;20167;-76
2021/12/04 07:53:08;;;;;;;3.73;3.43;;;;;;;2.43;100.00;98961.00;5071314;28;20646;-77
2021/12/04 07:55:33;;;;;;;3.53;3.23;;;;;;;2.49;100.00;98970.63;5072599;28;20169;-77
2021/12/04 07:57:59;;;;;;;4.00;3.40;;;;;;;2.51;100.00;98968.44;5071432;28;20198;-76
2021/12/04 08:00:25;;;;;;;3.57;3.27;;;;;;;2.47;100.00;98956.66;5072859;28;20178;-78
2021/12/04 08:02:51;;;;;;;2.57;2.37;;;;;;;2.54;100.00;98949.78;5072370;28;20202;-77
2021/12/04 08:05:17;;;;;;;2.70;2.33;;;;;;;2.58;100.00;98955.38;5072555;28;20185;-76
2021/12/04 08:07:42;;;;;;;3.33;2.50;;;;;;;2.55;100.00;98951.38;5072374;28;20225;-77
2021/12/04 08:10:12;;;;;;;4.00;3.60;;;;;;;2.52;100.00;98946.56;5072252;28;20701;-78
2021/12/04 08:12:37;;;;;;;3.27;3.03;;;;;;;2.53;100.00;98952.78;5072300;28;20206;-77
2021/12/04 08:15:04;;;;;;;3.30;3.00;;;;;;;2.61;100.00;98950.22;5072200;28;20665;-77
2021/12/04 08:17:31;;;;;;;2.50;1.20;;;;;;;2.61;100.00;98941.31;5070872;28;20229;-78
2021/12/04 08:19:56;;;;;;;5.20;3.17;;;;;;;2.57;100.00;98956.47;5071876;28;20396;-77
2021/12/04 08:22:21;;;;;;;3.93;3.60;;;;;;;2.55;100.00;98969.44;5070729;28;20186;-77
2021/12/04 08:24:47;;;;;;;1.80;1.70;;;;;;;2.57;100.00;98965.34;5071625;28;20175;-76
2021/12/04 08:27:14;;;;;;;2.77;2.30;;;;;;;2.57;100.00;98962.66;5071963;28;20194;-77
2021/12/04 08:29:40;;;;;;;2.63;2.43;;;;;;;2.55;100.00;98966.75;5071793;28;20185;-74
2021/12/04 08:32:05;;;;;;;2.60;2.40;;;;;;;2.46;100.00;98963.13;5071877;28;20212;-77
2021/12/04 08:34:31;;;;;;;0.93;0.43;;;;;;;2.46;100.00;98955.03;5071676;28;20186;-76
2021/12/04 08:36:56;;;;;;;2.00;1.90;;;;;;;2.38;100.00;98949.22;5071584;28;20177;-78
2021/12/04 08:39:22;;;;;;;1.67;1.57;;;;;;;2.39;100.00;98947.34;5070313;28;20206;-79
2021/12/04 08:41:47;;;;;;;0.50;0.50;;;;;;;2.36;100.00;98942.53;5071606;28;20181;-77
2021/12/04 08:44:14;;;;;;;0.23;0.20;;;;;;;2.36;100.00;98948.72;5071919;28;20171;-78
2021/12/04 08:46:39;;;;;;;5.37;3.43;;;;;;;2.36;100.00;98945.22;5071372;28;20223;-77
2021/12/04 08:49:06;;;;;;;2.00;1.80;;;;;;;2.39;100.00;98942.75;5071411;28;20449;-78
2021/12/04 08:51:33;;;;;;;2.73;1.07;;;;;;;2.45;100.00;98945.34;5071496;28;20263;-78
2021/12/04 08:54:00;;;;;;;3.43;3.13;;;;;;;2.49;100.00;98951.75;5070041;28;20185;-82
2021/12/04 08:56:25;;;;;;;3.33;3.13;;;;;;;2.50;100.00;98948.78;5071186;28;20182;-82
2021/12/04 08:58:51;;;;;;;3.40;3.20;;;;;;;2.57;100.00;98946.47;5071160;28;20202;-82
2021/12/04 09:01:25;;;;;;;4.13;3.43;;;;;;;2.56;100.00;98941.38;5071409;28;20263;-83
2021/12/04 09:03:55;;;;;;;4.47;4.07;;;;;;;2.59;100.00;98948.88;5071122;28;20196;-79
2021/12/04 09:06:20;;;;;;;3.27;3.07;;;;;;;2.71;100.00;98949.22;5069945;28;20313;-81
2021/12/04 09:08:46;;;;;;;1.57;1.40;;;;;;;2.72;100.00;98953.50;5070658;28;20622;-80
2021/12/04 09:11:16;;;;;;;6.13;2.90;;;;;;;2.74;100.00;98945.91;5070979;28;20623;-80
2021/12/04 09:13:41;;;;;;;2.03;1.93;;;;;;;2.68;100.00;98942.53;5071120;28;20175;-76
2021/12/04 09:16:09;;;;;;;2.93;2.60;;;;;;;2.65;100.00;98943.13;5070907;28;20174;-76
2021/12/04 09:18:35;;;;;;;2.50;2.30;;;;;;;2.62;100.00;98932.13;5070852;28;20198;-73
2021/12/04 09:21:02;;;;;;;3.70;3.40;;;;;;;2.61;100.00;98938.63;5071101;28;20171;-75
2021/12/04 09:23:33;;;;;;;4.33;3.93;;;;;;;2.67;100.00;98929.34;5070800;28;20672;-76
2021/12/04 09:26:02;;;;;;;4.07;3.27;;;;;;;2.61;100.00;98927.84;5070784;28;20413;-75
2021/12/04 09:28:40;;;;;;;3.80;3.50;;;;;;;2.66;100.00;98917.75;5070671;28;20193;-75
2021/12/04 09:31:34;;;;;;;3.27;2.97;;;;;;;2.75;100.00;98930.53;5070610;28;20176;-76
2021/12/04 10:01:52;;;;;;;4.47;4.10;;;;;;;3.03;100.00;98901.69;5070657;28;20546;-75
2021/12/04 10:12:34;;;;;;;5.17;4.67;;;;;;;3.14;100.00;98897.72;5070372;28;20557;-75
2021/12/04 10:23:20;;;;;;;2.63;2.43;;;;;;;3.31;100.00;98889.81;5074410;28;20183;-76
2021/12/04 10:33:50;;;;;;;5.17;3.83;;;;;;;3.48;100.00;98881.91;5074033;28;20623;-77
2021/12/04 10:36:35;;;;;;;3.57;3.33;;;;;;;3.55;100.00;98873.38;5074288;28;20170;-77
2021/12/04 10:39:04;;;;;;;4.13;3.83;;;;;;;3.44;100.00;98872.78;5074243;28;20198;-76
2021/12/04 10:41:39;;;;;;;3.23;2.70;;;;;;;3.39;100.00;98864.00;5072611;28;20578;-76
2021/12/04 10:44:20;;;;;;;1.93;1.83;;;;;;;3.32;100.00;98850.91;5073976;28;20166;-77
2021/12/04 10:47:13;;;;;;;1.40;1.30;;;;;;;3.31;100.00;98862.00;5073609;28;20182;-77
2021/12/04 10:55:28;;;;;;;3.13;2.90;;;;;;;3.39;100.00;98845.91;5074143;28;20163;-77
2021/12/04 11:03:33;;;;;;;1.10;0.53;;;;;;;3.47;100.00;98830.88;5075382;28;20178;-77
2021/12/04 11:20:21;;;;;;;0.77;0.77;;;;;;;3.51;100.00;98816.50;5073872;28;20640;-77
2021/12/04 11:25:54;;;;;;;2.40;2.20;;;;;;;3.56;100.00;98797.47;5043548;28;20545;-78
2021/12/04 11:28:32;;;;;;;1.93;1.83;;;;;;;3.61;100.00;98801.94;5072897;28;20202;-77
2021/12/04 11:41:55;;;;;;;1.60;1.50;;;;;;;3.72;100.00;98781.69;5072960;28;20178;-77
2021/12/04 11:44:27;;;;;;;0.57;0.57;;;;;;;3.92;100.00;98780.44;5072614;28;20159;-77
2021/12/04 11:46:59;;;;;;;2.23;2.13;;;;;;;3.84;100.00;98768.44;5072230;28;20170;-77
2021/12/04 11:49:27;;;;;;;1.47;1.10;;;;;;;3.70;100.00;98758.81;5072601;28;20220;-78
2021/12/04 11:51:59;;;;;;;0.90;0.90;;;;;;;3.86;100.00;98758.13;5071252;28;20174;-77
2021/12/04 11:54:49;;;;;;;1.00;0.97;;;;;;;3.98;100.00;98754.84;5072443;28;20158;-77
2021/12/04 11:57:17;;;;;;;2.10;1.67;;;;;;;3.96;100.00;98757.06;5072368;28;20177;-78
2021/12/04 11:59:45;;;;;;;1.40;1.30;;;;;;;3.91;100.00;98754.53;5072311;28;20213;-77
2021/12/04 12:02:18;;;;;;;1.50;1.40;;;;;;;3.85;100.00;98753.81;5072556;28;20611;-77
2021/12/04 12:04:53;;;;;;;2.03;1.83;;;;;;;3.88;100.00;98742.41;5072099;28;20187;-78
2021/12/04 12:07:30;;;;;;;1.93;1.83;;;;;;;3.93;100.00;98746.91;5072240;28;20178;-78
2021/12/04 12:10:11;;;;;;;2.00;1.90;;;;;;;4.11;100.00;98751.28;5072031;28;20196;-77
2021/12/04 12:12:40;;;;;;;1.80;1.40;;;;;;;4.11;100.00;98740.47;5072073;28;20491;-77
2021/12/04 12:15:31;;;;;;;2.33;2.00;;;;;;;4.09;100.00;98733.78;5070400;28;20182;-77
2021/12/04 12:18:09;;;;;;;1.23;1.20;;;;;;;4.05;100.00;98721.97;5071807;28;20472;-77
2021/12/04 12:20:42;;;;;;;2.00;1.80;;;;;;;4.02;100.00;98718.00;5072001;28;20712;-76
2021/12/04 12:23:10;;;;;;;1.50;1.40;;;;;;;4.01;100.00;98715.63;5071868;28;20439;-77
2021/12/04 12:36:31;;;;;;;1.37;1.27;;;;;;;3.84;100.00;98689.31;5071516;28;20182;-77
2021/12/04 12:38:59;;;;;;;2.13;1.93;;;;;;;3.84;100.00;98689.31;5071484;28;20569;-77
2021/12/04 12:41:32;;;;;;;1.33;1.23;;;;;;;3.82;100.00;98683.44;5071470;28;20584;-77
2021/12/04 12:44:10;;;;;;;2.20;2.00;;;;;;;4.00;100.00;98676.19;5070768;28;20583;-77
2021/12/04 12:46:47;;;;;;;1.53;1.43;;;;;;;4.01;100.00;98685.88;5071335;28;20179;-78
2021/12/04 12:49:36;;;;;;;1.87;1.77;;;;;;;4.05;100.00;98676.88;5071214;28;20622;-76
2021/12/04 12:52:05;;;;;;;1.97;1.40;;;;;;;4.06;100.00;98673.06;5071247;28;20178;-77
2021/12/04 12:54:49;;;;;;;1.53;1.43;;;;;;;4.02;100.00;98677.47;5071268;28;20171;-77
2021/12/04 12:57:26;;;;;;;1.93;1.83;;;;;;;4.07;100.00;98688.16;5070000;28;20223;-76
2021/12/04 13:11:41;;;;;;;2.23;2.07;;;;;;;3.89;100.00;98672.97;5071233;28;20162;-77
2021/12/04 13:14:19;;;;;;;1.83;1.73;;;;;;;3.87;100.00;98669.78;5071002;28;20166;-77
2021/12/04 13:16:52;;;;;;;2.13;1.93;;;;;;;3.87;100.00;98651.66;5070645;28;20159;-77
2021/12/04 13:19:20;;;;;;;1.80;1.67;;;;;;;3.88;100.00;98653.25;5070874;28;20198;-77
2021/12/04 13:21:49;;;;;;;2.30;2.10;;;;;;;3.61;100.00;98622.94;5070660;28;20171;-77
2021/12/04 13:24:15;;;;;;;1.53;1.43;;;;;;;3.59;100.00;98620.56;5070394;28;20653;-77
2021/12/04 13:26:44;;;;;;;1.70;1.60;;;;;;;3.62;100.00;98613.72;5069928;28;20190;-76
2021/12/04 13:29:13;;;;;;;2.90;2.70;;;;;;;3.54;100.00;98599.91;5070398;28;20178;-77
2021/12/04 13:31:39;;;;;;;2.53;2.33;;;;;;;3.69;100.00;98604.09;5070524;28;20201;-77
2021/12/04 13:34:07;;;;;;;2.97;2.70;;;;;;;3.73;100.00;98598.84;5070560;28;20211;-76
2021/12/04 13:36:33;;;;;;;2.53;2.33;;;;;;;3.75;100.00;98600.13;5070492;28;20197;-76
2021/12/04 13:39:03;;;;;;;3.17;2.97;;;;;;;3.75;100.00;98607.44;5070410;28;20202;-77
2021/12/04 13:41:30;;;;;;;3.77;3.47;;;;;;;3.84;100.00;98603.69;5070793;28;20167;-77
2021/12/04 13:43:57;;;;;;;4.27;3.87;;;;;;;3.88;100.00;98599.22;5070791;28;20616;-77
2021/12/04 13:46:24;;;;;;;4.13;3.73;;;;;;;3.87;100.00;98591.44;5070298;28;20641;-77
2021/12/04 13:48:51;;;;;;;2.80;2.60;;;;;;;3.82;100.00;98589.69;5070604;28;20577;-77
2021/12/04 13:51:17;;;;;;;4.13;2.97;;;;;;;3.82;100.00;98587.00;5070456;28;20205;-77
2021/12/04 13:53:46;;;;;;;2.07;1.93;;;;;;;3.83;100.00;98585.88;5070450;28;20198;-76
2021/12/04 13:56:17;;;;;;;1.80;1.70;;;;;;;3.74;100.00;98587.75;5069148;28;20235;-76
2021/12/04 13:58:54;;;;;;;1.67;1.57;;;;;;;3.69;100.00;98577.09;5070107;28;20688;-77
2021/12/04 14:01:21;;;;;;;3.30;1.97;;;;;;;3.71;100.00;98587.56;5070571;28;20257;-76
2021/12/04 14:03:47;;;;;;;2.27;2.07;;;;;;;3.76;100.00;98599.06;5070468;28;20179;-77
2021/12/04 14:06:17;;;;;;;2.07;1.83;;;;;;;3.85;100.00;98602.56;5069944;28;20658;-76
2021/12/04 14:08:54;;;;;;;1.90;1.80;;;;;;;3.94;100.00;98601.81;5070206;28;20206;-77
2021/12/04 14:11:30;;;;;;;2.07;1.90;;;;;;;3.90;100.00;98601.63;5070182;28;20186;-76
2021/12/04 14:13:55;;;;;;;1.63;1.53;;;;;;;3.79;100.00;98600.31;5070283;28;20170;-77
2021/12/04 14:16:25;;;;;;;2.03;1.83;;;;;;;3.88;100.00;98610.03;5069971;28;20185;-76
2021/12/04 14:18:52;;;;;;;3.50;2.40;;;;;;;3.68;100.00;98590.91;5070010;28;20319;-76
2021/12/04 14:21:17;;;;;;;2.03;1.90;;;;;;;3.73;100.00;98591.53;5070363;28;20257;-77
2021/12/04 14:23:50;;;;;;;2.20;2.00;;;;;;;3.79;100.00;98586.81;5069805;28;20321;-77
2021/12/04 14:26:16;;;;;;;1.80;1.70;;;;;;;3.82;100.00;98584.28;5069616;28;20194;-77
2021/12/04 14:28:43;;;;;;;1.80;1.70;;;;;;;3.87;100.00;98578.72;5070028;28;20545;-76
2021/12/04 14:31:20;;;;;;;2.57;1.97;;;;;;;3.80;100.00;98580.31;5070008;28;20833;-76
2021/12/04 14:33:47;;;;;;;5.27;4.50;;;;;;;3.72;100.00;98586.47;5069888;28;20189;-77
2021/12/04 14:36:18;;;;;;;6.87;3.50;;;;;;;3.66;100.00;98579.63;5069794;28;20194;-77